createdAt,value
2018-12-12T00:00:08.473Z,5.50
2018-12-12T00:02:36.526Z,5.87
2018-12-12T00:05:04.600Z,6.50
2018-12-12T00:07:32.671Z,5.90
2018-12-12T00:10:00.736Z,6.27
2018-12-12T00:12:28.859Z,6.23
2018-12-12T00:14:56.893Z,5.70
2018-12-12T00:17:24.943Z,6.67
2018-12-12T00:19:53.011Z,6.37
2018-12-12T00:22:21.040Z,5.80
2018-12-12T00:24:49.117Z,5.80
2018-12-12T00:27:17.153Z,6.57
2018-12-12T00:29:45.228Z,5.77
2018-12-12T00:32:13.282Z,6.47
2018-12-12T00:34:41.344Z,6.17
2018-12-12T00:37:09.397Z,5.73
2018-12-12T00:39:37.424Z,5.50
2018-12-12T00:42:05.472Z,5.77
2018-12-12T00:44:33.536Z,5.63
2018-12-12T00:47:01.812Z,6.37
2018-12-12T00:49:29.845Z,6.47
2018-12-12T00:51:58.086Z,6.40
2018-12-12T00:54:26.161Z,5.80
2018-12-12T00:56:54.251Z,5.83
2018-12-12T00:59:22.281Z,6.40
2018-12-12T01:01:50.385Z,5.73
2018-12-12T01:04:18.455Z,6.20
2018-12-12T01:06:46.532Z,7.27
2018-12-12T01:09:14.592Z,6.33
2018-12-12T01:11:48.000Z,7.83
2018-12-12T01:14:16.066Z,6.67
2018-12-12T01:16:44.145Z,6.80
2018-12-12T01:19:12.279Z,6.47
2018-12-12T01:21:40.360Z,6.60
2018-12-12T01:24:08.390Z,6.60
2018-12-12T01:26:36.485Z,6.73
2018-12-12T01:29:04.535Z,6.73
2018-12-12T01:31:32.582Z,6.43
2018-12-12T01:34:00.662Z,6.00
2018-12-12T01:36:28.717Z,6.37
2018-12-12T01:38:56.759Z,6.10
2018-12-12T01:41:24.810Z,6.03
2018-12-12T01:43:52.867Z,5.57
2018-12-12T01:46:20.911Z,6.03
2018-12-12T01:48:48.972Z,7.03
2018-12-12T01:51:16.989Z,6.53
2018-12-12T01:53:47.041Z,7.37
2018-12-12T01:56:15.157Z,7.20
2018-12-12T01:58:43.218Z,8.07
2018-12-12T02:01:11.272Z,6.77
2018-12-12T02:03:39.342Z,7.23
2018-12-12T02:06:07.360Z,7.23
2018-12-12T02:08:35.417Z,6.87
2018-12-12T02:11:03.482Z,7.13
2018-12-12T02:13:35.488Z,7.07
2018-12-12T02:16:04.158Z,6.70
2018-12-12T02:18:32.765Z,7.90
2018-12-12T02:21:00.868Z,6.60
2018-12-12T02:23:28.901Z,7.20
2018-12-12T02:25:56.982Z,7.27
2018-12-12T02:28:25.013Z,7.47
2018-12-12T02:30:53.095Z,6.50
2018-12-12T02:33:21.133Z,6.67
2018-12-12T02:35:49.201Z,6.63
2018-12-12T02:38:17.269Z,7.17
2018-12-12T02:40:45.334Z,7.37
2018-12-12T02:43:13.386Z,7.07
2018-12-12T02:45:41.423Z,7.60
2018-12-12T02:48:09.494Z,7.83
2018-12-12T02:50:37.545Z,7.27
2018-12-12T02:53:05.611Z,7.63
2018-12-12T02:55:33.629Z,6.80
2018-12-12T02:58:01.669Z,7.57
2018-12-12T03:00:29.869Z,7.80
2018-12-12T03:02:58.020Z,6.27
2018-12-12T03:05:26.111Z,6.53
2018-12-12T03:07:54.166Z,6.50
2018-12-12T03:10:22.227Z,5.90
2018-12-12T03:12:50.277Z,6.43
2018-12-12T03:15:18.342Z,6.97
2018-12-12T03:17:46.391Z,6.70
2018-12-12T03:20:14.424Z,6.90
2018-12-12T03:22:42.533Z,6.73
2018-12-12T03:25:10.574Z,7.17
2018-12-12T03:27:38.641Z,6.87
2018-12-12T03:30:06.894Z,6.13
2018-12-12T03:32:34.991Z,7.20
2018-12-12T03:35:03.040Z,6.03
2018-12-12T03:37:31.119Z,6.67
2018-12-12T03:39:59.471Z,6.47
2018-12-12T03:42:28.132Z,6.90
2018-12-12T03:44:56.216Z,6.03
2018-12-12T03:47:24.298Z,6.70
2018-12-12T03:49:52.371Z,6.10
2018-12-12T03:52:20.409Z,6.30
2018-12-12T03:54:48.476Z,6.07
2018-12-12T03:57:16.508Z,6.00
2018-12-12T03:59:44.596Z,6.33
2018-12-12T04:02:12.679Z,5.57
2018-12-12T04:04:40.834Z,5.80
2018-12-12T04:07:08.920Z,6.47
2018-12-12T04:09:36.973Z,6.60
2018-12-12T04:12:05.049Z,7.00
2018-12-12T04:14:33.117Z,6.37
2018-12-12T04:17:01.173Z,6.20
2018-12-12T04:19:29.209Z,7.00
2018-12-12T04:21:57.378Z,6.60
2018-12-12T04:24:26.709Z,6.13
2018-12-12T04:26:54.759Z,6.27
2018-12-12T04:29:22.821Z,6.50
2018-12-12T04:31:50.900Z,6.17
2018-12-12T04:34:18.941Z,5.97
2018-12-12T04:36:46.979Z,5.90
2018-12-12T04:39:15.037Z,7.53
2018-12-12T04:41:43.125Z,6.37
2018-12-12T04:44:11.191Z,6.70
2018-12-12T04:46:39.273Z,6.13
2018-12-12T04:49:07.318Z,7.23
2018-12-12T04:51:35.383Z,6.97
2018-12-12T04:54:03.455Z,6.67
2018-12-12T04:56:31.505Z,7.20
2018-12-12T04:58:59.778Z,7.97
2018-12-12T05:01:27.848Z,7.27
2018-12-12T05:03:55.898Z,9.63
2018-12-12T05:06:23.970Z,8.30
2018-12-12T05:08:52.010Z,8.67
2018-12-12T05:11:20.078Z,8.20
2018-12-12T05:13:48.126Z,8.90
2018-12-12T05:16:16.165Z,9.00
2018-12-12T05:18:44.226Z,9.63
2018-12-12T05:21:12.272Z,9.73
2018-12-12T05:23:40.354Z,9.47
2018-12-12T05:26:08.396Z,10.27
2018-12-12T05:28:36.477Z,10.83
2018-12-12T05:31:04.550Z,10.20
2018-12-12T05:33:32.586Z,9.73
2018-12-12T05:36:00.661Z,10.63
2018-12-12T05:38:28.701Z,10.37
2018-12-12T05:40:56.742Z,10.60
2018-12-12T05:43:24.773Z,11.33
2018-12-12T05:45:52.856Z,11.03
2018-12-12T05:48:20.917Z,12.10
2018-12-12T05:50:48.975Z,16.30
2018-12-12T05:53:17.037Z,11.00
2018-12-12T05:55:45.123Z,12.03
2018-12-12T05:58:13.178Z,11.27
2018-12-12T06:00:41.243Z,11.63
2018-12-12T06:03:09.304Z,10.87
2018-12-12T06:05:37.351Z,11.03
2018-12-12T06:08:05.412Z,11.57
2018-12-12T06:10:33.474Z,12.30
2018-12-12T06:13:01.554Z,11.23
2018-12-12T06:15:29.609Z,11.77
2018-12-12T06:17:57.664Z,11.87
2018-12-12T06:20:25.738Z,13.07
2018-12-12T06:22:53.781Z,12.77
2018-12-12T06:25:21.862Z,12.40
2018-12-12T06:27:50.034Z,11.93
2018-12-12T06:30:18.119Z,11.87
2018-12-12T06:32:46.178Z,13.03
2018-12-12T06:35:14.258Z,11.83
2018-12-12T06:37:42.308Z,11.83
2018-12-12T06:40:10.373Z,13.03
2018-12-12T06:42:38.477Z,12.27
2018-12-12T06:45:06.515Z,13.47
2018-12-12T06:47:34.575Z,13.17
2018-12-12T06:50:02.641Z,13.30
2018-12-12T06:52:30.759Z,12.63
2018-12-12T06:54:58.839Z,13.23
2018-12-12T06:57:26.898Z,12.27
2018-12-12T06:59:54.973Z,13.73
2018-12-12T07:02:23.029Z,16.50
2018-12-12T07:04:51.135Z,14.93
2018-12-12T07:07:19.229Z,16.27
2018-12-12T07:09:47.296Z,12.87
2018-12-12T07:12:15.382Z,14.43
2018-12-12T07:14:43.472Z,13.60
2018-12-12T07:17:11.565Z,13.37
2018-12-12T07:19:39.607Z,14.80
2018-12-12T07:22:07.693Z,13.10
2018-12-12T07:24:35.725Z,13.57
2018-12-12T07:27:03.823Z,13.80
2018-12-12T07:29:31.923Z,13.67
2018-12-12T07:31:59.986Z,14.30
2018-12-12T07:34:28.063Z,13.77
2018-12-12T07:36:56.134Z,14.23
2018-12-12T07:39:24.196Z,14.30
2018-12-12T07:41:52.262Z,14.33
2018-12-12T07:44:20.318Z,15.20
2018-12-12T07:46:48.714Z,15.17
2018-12-12T07:49:17.032Z,23.43
2018-12-12T07:51:45.160Z,17.20
2018-12-12T07:54:13.198Z,15.60
2018-12-12T07:56:41.260Z,13.60
2018-12-12T07:59:09.334Z,15.47
2018-12-12T08:01:37.370Z,14.87
2018-12-12T08:04:05.440Z,14.37
2018-12-12T08:06:33.544Z,14.03
2018-12-12T08:09:01.610Z,14.87
2018-12-12T08:11:29.681Z,14.97
2018-12-12T08:13:57.787Z,14.87
2018-12-12T08:16:25.828Z,15.13
2018-12-12T08:18:53.891Z,15.50
2018-12-12T08:21:21.975Z,14.63
2018-12-12T08:23:50.015Z,15.73
2018-12-12T08:26:18.089Z,16.07
2018-12-12T08:28:46.156Z,15.77
2018-12-12T08:31:14.711Z,17.07
2018-12-12T08:33:42.799Z,15.40
2018-12-12T08:36:10.855Z,18.23
2018-12-12T08:38:38.979Z,52.60
2018-12-12T08:41:07.038Z,22.50
2018-12-12T08:43:35.094Z,19.97
2018-12-12T08:46:03.147Z,16.07
2018-12-12T08:48:31.204Z,17.93
2018-12-12T08:50:59.385Z,17.93
2018-12-12T08:53:27.506Z,15.67
2018-12-12T08:55:55.560Z,14.97
2018-12-12T08:58:23.640Z,17.17
2018-12-12T09:00:51.718Z,15.10
2018-12-12T09:03:19.798Z,15.43
2018-12-12T09:05:47.988Z,17.00
2018-12-12T09:08:16.071Z,16.80
2018-12-12T09:10:44.137Z,22.00
2018-12-12T09:13:12.192Z,16.17
2018-12-12T09:15:40.261Z,16.33
2018-12-12T09:18:08.344Z,16.87
2018-12-12T09:20:36.411Z,16.67
2018-12-12T09:23:04.488Z,16.87
2018-12-12T09:25:32.545Z,17.13
2018-12-12T09:28:00.631Z,16.73
2018-12-12T09:30:28.761Z,16.93
2018-12-12T09:32:56.801Z,16.07
2018-12-12T09:35:24.876Z,17.37
2018-12-12T09:37:52.948Z,17.30
2018-12-12T09:40:21.009Z,17.50
2018-12-12T09:42:49.109Z,16.50
2018-12-12T09:45:21.642Z,17.13
2018-12-12T09:47:47.262Z,16.23
2018-12-12T09:50:15.475Z,17.33
2018-12-12T09:52:43.607Z,16.57
2018-12-12T09:55:11.644Z,15.77
2018-12-12T09:57:39.741Z,16.97
2018-12-12T10:00:07.813Z,16.63
2018-12-12T10:02:35.855Z,16.10
2018-12-12T10:05:04.237Z,17.43
2018-12-12T10:07:32.282Z,15.73
2018-12-12T10:10:00.370Z,16.13
2018-12-12T10:12:28.424Z,17.13
2018-12-12T10:14:56.497Z,16.37
2018-12-12T10:17:24.568Z,17.10
2018-12-12T10:19:52.611Z,18.13
2018-12-12T10:22:20.667Z,15.77
2018-12-12T10:24:48.722Z,17.30
2018-12-12T10:27:16.783Z,17.30
2018-12-12T10:29:44.864Z,16.90
2018-12-12T10:32:12.977Z,16.60
2018-12-12T10:34:41.028Z,16.93
2018-12-12T10:37:09.104Z,17.47
2018-12-12T10:39:37.161Z,18.27
2018-12-12T10:42:05.313Z,16.47
2018-12-12T10:44:33.518Z,16.03
2018-12-12T10:47:01.685Z,16.70
2018-12-12T10:49:29.749Z,17.43
2018-12-12T10:51:57.821Z,16.27
2018-12-12T10:54:25.876Z,16.17
2018-12-12T10:56:53.954Z,15.93
2018-12-12T10:59:22.021Z,16.37
2018-12-12T11:01:52.149Z,15.70
2018-12-12T11:04:20.201Z,16.70
2018-12-12T11:06:48.274Z,16.33
2018-12-12T11:09:16.339Z,16.27
2018-12-12T11:11:44.385Z,17.07
2018-12-12T11:14:12.446Z,16.73
2018-12-12T11:16:40.649Z,18.30
2018-12-12T11:19:08.691Z,16.37
2018-12-12T11:21:36.767Z,17.87
2018-12-12T11:24:04.848Z,17.50
2018-12-12T11:26:36.347Z,17.23
2018-12-12T11:29:04.398Z,17.23
2018-12-12T11:31:32.484Z,17.80
2018-12-12T11:34:00.553Z,18.30
2018-12-12T11:36:28.626Z,17.80
2018-12-12T11:38:56.668Z,17.67
2018-12-12T11:41:24.753Z,18.10
2018-12-12T11:43:52.896Z,17.57
2018-12-12T11:46:20.944Z,18.00
2018-12-12T11:48:49.030Z,17.80
2018-12-12T11:51:17.092Z,17.63
2018-12-12T11:53:45.157Z,19.10
2018-12-12T11:56:13.254Z,17.40
2018-12-12T11:58:41.290Z,17.60
2018-12-12T12:01:09.347Z,18.00
2018-12-12T12:03:37.399Z,16.50
2018-12-12T12:06:05.502Z,17.83
2018-12-12T12:08:33.601Z,17.87
2018-12-12T12:11:01.675Z,17.47
2018-12-12T12:13:29.759Z,19.07
2018-12-12T12:15:57.802Z,17.63
2018-12-12T12:18:25.893Z,18.17
2018-12-12T12:20:53.946Z,17.53
2018-12-12T12:23:21.993Z,16.87
2018-12-12T12:25:50.073Z,17.93
2018-12-12T12:28:18.145Z,17.47
2018-12-12T12:30:46.261Z,18.43
2018-12-12T12:33:14.310Z,19.03
2018-12-12T12:35:42.407Z,19.40
2018-12-12T12:38:10.459Z,17.67
2018-12-12T12:40:38.544Z,18.60
2018-12-12T12:43:06.665Z,18.83
2018-12-12T12:45:34.715Z,17.07
2018-12-12T12:48:02.813Z,17.47
2018-12-12T12:50:30.867Z,18.30
2018-12-12T12:52:58.932Z,18.63
2018-12-12T12:55:26.984Z,18.93
2018-12-12T12:57:55.073Z,19.30
2018-12-12T13:00:23.158Z,19.57
2018-12-12T13:02:51.200Z,19.17
2018-12-12T13:05:19.290Z,18.47
2018-12-12T13:07:47.350Z,18.77
2018-12-12T13:10:15.566Z,18.43
2018-12-12T13:12:44.443Z,17.77
2018-12-12T13:15:12.747Z,19.80
2018-12-12T13:17:40.818Z,18.73
2018-12-12T13:20:08.876Z,17.97
2018-12-12T13:22:36.946Z,17.40
2018-12-12T13:25:05.019Z,18.80
2018-12-12T13:27:33.067Z,18.90
2018-12-12T13:30:01.145Z,17.77
2018-12-12T13:32:29.195Z,17.83
2018-12-12T13:34:57.239Z,18.30
2018-12-12T13:37:25.299Z,18.63
2018-12-12T13:39:53.341Z,17.07
2018-12-12T13:42:21.588Z,17.60
2018-12-12T13:44:49.629Z,17.30
2018-12-12T13:47:17.674Z,17.37
2018-12-12T13:49:45.764Z,16.93
2018-12-12T13:52:13.837Z,16.80
2018-12-12T13:54:41.882Z,17.43
2018-12-12T13:57:09.937Z,16.87
2018-12-12T13:59:37.996Z,16.97
2018-12-12T14:02:06.091Z,17.47
2018-12-12T14:04:34.142Z,18.27
2018-12-12T14:07:02.199Z,17.13
2018-12-12T14:09:30.258Z,17.43
2018-12-12T14:11:58.389Z,17.10
2018-12-12T14:14:26.930Z,16.73
2018-12-12T14:16:54.961Z,18.20
2018-12-12T14:19:23.045Z,18.10
2018-12-12T14:21:51.117Z,17.97
2018-12-12T14:24:19.175Z,18.83
2018-12-12T14:26:47.241Z,18.33
2018-12-12T14:29:15.313Z,17.60
2018-12-12T14:31:43.401Z,17.90
2018-12-12T14:34:11.441Z,17.83
2018-12-12T14:36:39.647Z,19.53
2018-12-12T14:39:07.743Z,19.80
2018-12-12T14:41:35.799Z,18.73
2018-12-12T14:44:03.862Z,20.20
2018-12-12T14:46:31.963Z,18.70
2018-12-12T14:49:00.019Z,18.53
2018-12-12T14:51:28.070Z,18.47
2018-12-12T14:53:56.164Z,18.70
2018-12-12T14:56:24.209Z,18.57
2018-12-12T14:58:52.291Z,19.00
2018-12-12T15:01:20.359Z,23.20
2018-12-12T15:03:48.453Z,20.37
2018-12-12T15:06:16.548Z,19.27
2018-12-12T15:08:44.626Z,23.55
2018-12-12T15:11:12.725Z,19.73
2018-12-12T15:13:40.798Z,20.57
2018-12-12T15:16:08.891Z,17.47
2018-12-12T15:18:37.016Z,18.67
2018-12-12T15:21:05.110Z,18.37
2018-12-12T15:23:33.308Z,18.80
2018-12-12T15:26:01.351Z,19.43
2018-12-12T15:28:29.446Z,18.70
2018-12-12T15:30:57.507Z,18.47
2018-12-12T15:33:25.603Z,18.07
2018-12-12T15:35:53.738Z,18.80
2018-12-12T15:38:21.790Z,18.07
2018-12-12T15:40:49.888Z,15.50
2018-12-12T15:43:17.932Z,17.03
2018-12-12T15:45:46.021Z,18.37
2018-12-12T15:48:14.072Z,17.63
2018-12-12T15:50:42.129Z,17.67
2018-12-12T15:53:10.187Z,17.50
2018-12-12T15:55:38.274Z,19.07
2018-12-12T15:58:06.315Z,18.60
2018-12-12T16:00:34.607Z,19.50
2018-12-12T16:03:02.751Z,17.63
2018-12-12T16:05:30.835Z,17.83
2018-12-12T16:07:58.895Z,16.50
2018-12-12T16:10:26.971Z,17.27
2018-12-12T16:12:55.036Z,17.10
2018-12-12T16:15:23.084Z,17.83
2018-12-12T16:17:51.221Z,17.40
2018-12-12T16:20:19.269Z,17.67
2018-12-12T16:22:47.326Z,17.03
2018-12-12T16:25:15.421Z,17.60
2018-12-12T16:27:43.487Z,15.77
2018-12-12T16:30:11.545Z,17.63
2018-12-12T16:32:39.591Z,16.87
2018-12-12T16:35:07.703Z,18.03
2018-12-12T16:37:35.783Z,18.73
2018-12-12T16:40:03.904Z,17.07
2018-12-12T16:42:31.985Z,17.67
2018-12-12T16:45:00.044Z,18.57
2018-12-12T16:47:28.147Z,18.77
2018-12-12T16:50:02.512Z,17.90
2018-12-12T16:52:30.593Z,17.83
2018-12-12T16:54:58.652Z,18.40
2018-12-12T16:57:26.729Z,17.77
2018-12-12T16:59:54.789Z,17.77
2018-12-12T17:02:22.858Z,18.73
2018-12-12T17:04:50.912Z,17.67
2018-12-12T17:07:19.015Z,19.67
2018-12-12T17:09:47.062Z,19.50
2018-12-12T17:12:15.129Z,17.87
2018-12-12T17:14:43.269Z,18.27
2018-12-12T17:17:11.326Z,17.67
2018-12-12T17:19:39.430Z,18.10
2018-12-12T17:22:07.497Z,17.53
2018-12-12T17:24:35.538Z,16.63
2018-12-12T17:27:03.633Z,17.27
2018-12-12T17:29:31.707Z,16.80
2018-12-12T17:31:59.852Z,15.07
2018-12-12T17:34:27.911Z,16.03
2018-12-12T17:36:56.008Z,14.67
2018-12-12T17:39:24.066Z,12.97
2018-12-12T17:41:52.118Z,12.20
2018-12-12T17:44:20.217Z,9.90
2018-12-12T17:46:48.392Z,11.03
2018-12-12T17:49:16.489Z,9.10
2018-12-12T17:51:44.590Z,7.47
2018-12-12T17:54:12.683Z,8.73
2018-12-12T17:56:40.716Z,8.30
2018-12-12T17:59:08.750Z,8.60
2018-12-12T18:01:36.848Z,8.40
2018-12-12T18:04:04.903Z,8.43
2018-12-12T18:06:32.967Z,7.53
2018-12-12T18:09:01.000Z,7.93
2018-12-12T18:11:29.079Z,9.17
2018-12-12T18:13:57.116Z,8.70
2018-12-12T18:16:25.228Z,8.97
2018-12-12T18:18:53.274Z,9.07
2018-12-12T18:21:21.344Z,9.73
2018-12-12T18:23:49.396Z,9.53
2018-12-12T18:26:17.458Z,9.83
2018-12-12T18:28:45.526Z,9.53
2018-12-12T18:31:13.575Z,8.40
2018-12-12T18:33:41.653Z,7.93
2018-12-12T18:36:09.764Z,6.53
2018-12-12T18:38:37.906Z,6.40
2018-12-12T18:41:05.996Z,7.50
2018-12-12T18:43:34.061Z,7.83
2018-12-12T18:46:02.135Z,7.77
2018-12-12T18:48:30.234Z,8.30
2018-12-12T18:50:58.315Z,6.80
2018-12-12T18:53:26.494Z,7.97
2018-12-12T18:55:54.566Z,7.43
2018-12-12T18:58:22.649Z,7.27
2018-12-12T19:00:50.711Z,7.70
2018-12-12T19:03:18.813Z,8.07
2018-12-12T19:05:46.848Z,7.40
2018-12-12T19:08:14.905Z,7.80
2018-12-12T19:10:42.980Z,8.73
2018-12-12T19:13:11.030Z,7.57
2018-12-12T19:15:39.105Z,7.40
2018-12-12T19:18:07.238Z,6.37
2018-12-12T19:20:35.362Z,7.50
2018-12-12T19:23:03.554Z,6.47
2018-12-12T19:25:31.631Z,7.33
2018-12-12T19:27:59.742Z,7.37
2018-12-12T19:30:27.801Z,7.63
2018-12-12T19:32:55.881Z,7.20
2018-12-12T19:35:23.959Z,7.33
2018-12-12T19:37:52.029Z,7.77
2018-12-12T19:40:20.105Z,7.97
2018-12-12T19:42:48.989Z,7.50
2018-12-12T19:45:17.090Z,9.17
2018-12-12T19:47:45.129Z,8.90
2018-12-12T19:50:13.232Z,8.10
2018-12-12T19:52:41.416Z,8.03
2018-12-12T19:55:09.508Z,9.20
2018-12-12T19:57:37.548Z,9.47
2018-12-12T20:00:05.750Z,9.20
2018-12-12T20:02:33.814Z,8.70
2018-12-12T20:05:01.938Z,7.83
2018-12-12T20:07:30.083Z,9.97
2018-12-12T20:09:58.132Z,8.70
2018-12-12T20:12:26.226Z,10.93
2018-12-12T20:14:54.321Z,10.13
2018-12-12T20:17:22.348Z,11.03
2018-12-12T20:19:50.439Z,11.70
2018-12-12T20:22:19.477Z,11.73
2018-12-12T20:24:47.565Z,10.97
2018-12-12T20:27:15.603Z,12.40
2018-12-12T20:29:43.674Z,12.90
2018-12-12T20:32:11.772Z,11.10
2018-12-12T20:34:39.821Z,11.37
2018-12-12T20:37:07.869Z,10.33
2018-12-12T20:39:35.960Z,10.10
2018-12-12T20:42:04.115Z,10.10
2018-12-12T20:44:32.181Z,10.30
2018-12-12T20:47:00.273Z,10.90
2018-12-12T20:49:28.375Z,10.60
2018-12-12T20:51:56.471Z,11.43
2018-12-12T20:54:24.526Z,11.77
2018-12-12T20:56:52.604Z,11.40
2018-12-12T20:59:20.702Z,12.00
2018-12-12T21:01:48.766Z,13.17
2018-12-12T21:04:16.869Z,11.87
2018-12-12T21:06:44.935Z,11.47
2018-12-12T21:09:13.018Z,12.03
2018-12-12T21:11:41.100Z,11.97
2018-12-12T21:14:09.178Z,12.27
2018-12-12T21:16:37.256Z,11.93
2018-12-12T21:19:05.345Z,12.30
2018-12-12T21:21:33.390Z,12.10
2018-12-12T21:24:01.450Z,10.97
2018-12-12T21:26:29.506Z,11.10
2018-12-12T21:28:57.550Z,10.60
2018-12-12T21:31:25.611Z,10.27
2018-12-12T21:33:53.688Z,11.23
2018-12-12T21:36:21.748Z,11.37
2018-12-12T21:38:49.830Z,11.37
2018-12-12T21:41:18.018Z,11.13
2018-12-12T21:43:46.104Z,12.00
2018-12-12T21:46:14.199Z,11.47
2018-12-12T21:48:42.292Z,11.27
2018-12-12T21:51:10.343Z,12.90
2018-12-12T21:53:38.420Z,11.90
2018-12-12T21:56:06.530Z,12.40
2018-12-12T21:58:34.640Z,11.63
2018-12-12T22:01:02.686Z,11.60
2018-12-12T22:03:30.784Z,12.43
2018-12-12T22:05:58.879Z,11.97
2018-12-12T22:08:26.953Z,12.27
2018-12-12T22:10:54.992Z,13.00
2018-12-12T22:13:23.093Z,12.53
2018-12-12T22:15:51.175Z,15.27
2018-12-12T22:18:19.237Z,14.83
2018-12-12T22:20:47.304Z,14.40
2018-12-12T22:23:15.392Z,13.00
2018-12-12T22:25:43.452Z,13.87
2018-12-12T22:28:11.507Z,14.37
2018-12-12T22:30:39.589Z,13.73
2018-12-12T22:33:07.715Z,14.57
2018-12-12T22:35:35.774Z,13.83
2018-12-12T22:38:03.834Z,14.57
2018-12-12T22:40:31.916Z,15.77
2018-12-12T22:42:59.995Z,15.23
2018-12-12T22:45:28.148Z,13.93
2018-12-12T22:47:56.484Z,14.73
2018-12-12T22:50:24.537Z,12.30
2018-12-12T22:52:52.638Z,13.73
2018-12-12T22:55:20.683Z,14.13
2018-12-12T22:57:48.770Z,12.57
2018-12-12T23:02:23.328Z,13.70
2018-12-12T23:04:51.422Z,12.00
2018-12-12T23:07:19.483Z,13.03
2018-12-12T23:09:47.548Z,12.47
2018-12-12T23:12:15.592Z,13.20
2018-12-12T23:14:43.676Z,13.17
2018-12-12T23:17:11.743Z,12.70
2018-12-12T23:19:39.821Z,13.27
2018-12-12T23:22:07.888Z,12.87
2018-12-12T23:24:35.963Z,12.87
2018-12-12T23:27:04.248Z,11.93
2018-12-12T23:29:32.292Z,12.40
2018-12-12T23:32:00.356Z,11.70
2018-12-12T23:34:28.414Z,13.00
2018-12-12T23:36:56.480Z,13.07
2018-12-12T23:39:24.532Z,12.50
2018-12-12T23:41:52.566Z,12.80
2018-12-12T23:44:20.635Z,13.50
2018-12-12T23:46:48.680Z,13.90
2018-12-12T23:49:16.784Z,13.67
2018-12-12T23:51:44.866Z,14.53
2018-12-12T23:54:12.914Z,14.03
2018-12-12T23:56:40.970Z,15.27
2018-12-12T23:59:09.056Z,14.37
